Beech Bottom, North Carolina
Current Conditions -  °F | °C
As of 5:15 PM on Monday 20 Oct 2014 (Local Time) from KTNB Reporting Station
Overcast Overcast  
Wind Chill: 60°   Ceiling: 3800
Heat Index: 60°   Visibility: 10mi
Dew Point: 42°   Wind: 10mph
Humidity: 52%   Direction: 310°NW
Pressure: 30.03"   Gusts: NA
Location:  36.0227°N, 81.9499°W
Report Text: KTNB 202115Z AUTO 31009KT 10SM BKN038 OVC046 15/06 A3003 RMK AO2 T01530056
Loading
Personal Weather Stations






























Interactive Weather Map
Tropical Storm Tracking
New forecast layout! Learn more

10-Day Weather Forecast

Advertisements
Track Severe Weather on mobile